createdAt,value
2018-05-27T00:01:31.575Z,9.50
2018-05-27T00:03:59.477Z,9.43
2018-05-27T00:06:27.381Z,8.30
2018-05-27T00:08:55.318Z,8.47
2018-05-27T00:11:23.213Z,8.50
2018-05-27T00:13:51.112Z,8.70
2018-05-27T00:16:18.999Z,8.23
2018-05-27T00:18:47.659Z,9.77
2018-05-27T00:21:15.583Z,8.20
2018-05-27T00:23:43.489Z,8.13
2018-05-27T00:26:11.384Z,9.00
2018-05-27T00:28:39.325Z,7.87
2018-05-27T00:31:07.219Z,8.03
2018-05-27T00:33:35.124Z,8.70
2018-05-27T00:36:03.054Z,8.90
2018-05-27T00:38:31.029Z,7.97
2018-05-27T00:40:58.923Z,9.13
2018-05-27T00:43:27.575Z,8.37
2018-05-27T00:45:55.497Z,9.17
2018-05-27T00:48:23.453Z,9.00
2018-05-27T00:50:51.524Z,9.07
2018-05-27T00:53:19.568Z,9.90
2018-05-27T00:55:47.444Z,8.40
2018-05-27T00:58:16.160Z,8.10
2018-05-27T01:00:44.059Z,8.93
2018-05-27T01:03:11.964Z,8.17
2018-05-27T01:05:39.850Z,8.97
2018-05-27T01:08:08.519Z,8.50
2018-05-27T01:10:36.437Z,9.07
2018-05-27T01:13:04.340Z,8.83
2018-05-27T01:15:32.641Z,9.30
2018-05-27T01:18:00.522Z,9.13
2018-05-27T01:20:28.422Z,10.07
2018-05-27T01:22:56.311Z,8.60
2018-05-27T01:25:24.221Z,8.33
2018-05-27T01:27:52.935Z,10.30
2018-05-27T01:30:20.830Z,9.87
2018-05-27T01:32:48.721Z,9.47
2018-05-27T01:35:16.644Z,10.13
2018-05-27T01:37:44.539Z,8.73
2018-05-27T01:40:12.436Z,8.80
2018-05-27T01:42:40.316Z,8.70
2018-05-27T01:45:08.976Z,8.90
2018-05-27T01:47:36.867Z,8.03
2018-05-27T01:50:04.782Z,10.00
2018-05-27T01:52:32.705Z,8.30
2018-05-27T01:55:00.598Z,9.43
2018-05-27T01:57:28.506Z,8.90
2018-05-27T01:59:56.406Z,9.13
2018-05-27T02:02:24.307Z,8.87
2018-05-27T02:04:52.211Z,8.70
2018-05-27T02:07:20.126Z,9.10
2018-05-27T02:09:48.803Z,10.00
2018-05-27T02:12:16.706Z,9.13
2018-05-27T02:14:44.590Z,8.50
2018-05-27T02:17:12.481Z,9.00
2018-05-27T02:19:40.365Z,8.83
2018-05-27T02:22:08.272Z,8.17
2018-05-27T02:24:36.173Z,9.30
2018-05-27T02:27:04.079Z,8.47
2018-05-27T02:29:31.973Z,8.10
2018-05-27T02:32:00.628Z,8.47
2018-05-27T02:34:28.522Z,9.23
2018-05-27T02:36:57.190Z,9.07
2018-05-27T02:39:25.086Z,9.47
2018-05-27T02:41:53.757Z,9.33
2018-05-27T02:44:22.471Z,8.63
2018-05-27T02:46:50.366Z,8.47
2018-05-27T02:49:18.343Z,8.90
2018-05-27T02:51:46.250Z,9.27
2018-05-27T02:54:14.930Z,8.60
2018-05-27T02:56:42.838Z,8.90
2018-05-27T02:59:10.785Z,9.00
2018-05-27T03:01:39.451Z,8.40
2018-05-27T03:04:08.262Z,8.23
2018-05-27T03:06:36.937Z,10.53
2018-05-27T03:09:07.783Z,8.67
2018-05-27T03:11:36.439Z,8.47
2018-05-27T03:14:04.373Z,9.10
2018-05-27T03:16:32.280Z,10.40
2018-05-27T03:19:00.185Z,7.80
2018-05-27T03:21:28.079Z,8.43
2018-05-27T03:23:55.986Z,8.50
2018-05-27T03:26:23.907Z,9.20
2018-05-27T03:28:51.808Z,8.07
2018-05-27T03:31:19.707Z,8.77
2018-05-27T03:33:47.612Z,9.77
2018-05-27T03:36:15.508Z,9.23
2018-05-27T03:38:44.177Z,8.60
2018-05-27T03:41:12.079Z,8.73
2018-05-27T03:43:39.979Z,8.50
2018-05-27T03:46:08.642Z,9.70
2018-05-27T03:48:36.553Z,7.73
2018-05-27T03:51:04.454Z,9.13
2018-05-27T03:53:32.344Z,9.03
2018-05-27T03:56:00.254Z,8.00
2018-05-27T03:58:29.097Z,7.70
2018-05-27T04:00:57.010Z,9.37
2018-05-27T04:03:25.668Z,9.07
2018-05-27T04:06:05.280Z,9.37
2018-05-27T04:08:33.976Z,7.97
2018-05-27T04:11:01.876Z,8.83
2018-05-27T04:13:29.812Z,8.33
2018-05-27T04:15:57.713Z,8.90
2018-05-27T04:18:25.616Z,8.27
2018-05-27T04:20:53.555Z,8.87
2018-05-27T04:23:22.216Z,8.53
2018-05-27T04:25:50.099Z,9.20
2018-05-27T04:28:18.029Z,8.40
2018-05-27T04:30:45.921Z,8.13
2018-05-27T04:33:13.819Z,8.17
2018-05-27T04:35:41.705Z,8.33
2018-05-27T04:38:10.381Z,7.50
2018-05-27T04:40:39.034Z,8.33
2018-05-27T04:43:06.935Z,8.50
2018-05-27T04:45:35.583Z,7.30
2018-05-27T04:48:03.466Z,6.73
2018-05-27T04:50:31.350Z,8.07
2018-05-27T04:52:59.250Z,7.23
2018-05-27T04:55:27.129Z,8.07
2018-05-27T04:57:55.014Z,8.00
2018-05-27T05:00:22.892Z,7.70
2018-05-27T05:02:50.769Z,7.77
2018-05-27T05:05:18.656Z,7.60
2018-05-27T05:07:46.545Z,7.40
2018-05-27T05:10:15.195Z,6.83
2018-05-27T05:12:43.077Z,7.67
2018-05-27T05:15:10.968Z,7.37
2018-05-27T05:17:39.642Z,6.43
2018-05-27T05:20:07.593Z,6.60
2018-05-27T05:22:35.486Z,6.30
2018-05-27T05:25:04.185Z,5.90
2018-05-27T05:27:33.613Z,6.73
2018-05-27T05:30:01.546Z,6.60
2018-05-27T05:32:30.206Z,7.43
2018-05-27T05:34:58.164Z,6.80
2018-05-27T05:37:26.065Z,6.63
2018-05-27T05:39:54.728Z,6.43
2018-05-27T05:42:22.622Z,7.87
2018-05-27T05:44:50.522Z,7.67
2018-05-27T05:47:21.744Z,6.60
2018-05-27T05:49:53.496Z,5.77
2018-05-27T05:52:25.346Z,6.80
2018-05-27T05:54:53.444Z,7.87
2018-05-27T05:57:22.146Z,7.87
2018-05-27T05:59:53.056Z,6.80
2018-05-27T06:02:24.427Z,7.50
2018-05-27T06:04:52.558Z,6.77
2018-05-27T06:07:20.450Z,6.80
2018-05-27T06:09:48.357Z,7.70
2018-05-27T06:12:16.243Z,6.67
2018-05-27T06:14:44.137Z,6.43
2018-05-27T06:17:12.023Z,7.20
2018-05-27T06:19:39.952Z,5.90
2018-05-27T06:22:07.857Z,7.03
2018-05-27T06:24:35.748Z,5.83
2018-05-27T06:27:04.430Z,6.87
2018-05-27T06:29:33.084Z,6.10
2018-05-27T06:32:01.029Z,6.90
2018-05-27T06:34:28.933Z,5.47
2018-05-27T06:36:56.841Z,5.97
2018-05-27T06:39:24.727Z,5.97
2018-05-27T06:41:52.610Z,6.80
2018-05-27T06:44:20.498Z,5.67
2018-05-27T06:46:48.454Z,5.40
2018-05-27T06:49:16.376Z,5.20
2018-05-27T06:51:45.034Z,5.60
2018-05-27T06:54:13.056Z,5.43
2018-05-27T06:56:40.949Z,5.07
2018-05-27T06:59:08.855Z,5.40
2018-05-27T07:01:37.519Z,6.13
2018-05-27T07:04:05.430Z,5.17
2018-05-27T07:06:36.525Z,6.23
2018-05-27T07:09:04.767Z,6.13
2018-05-27T07:11:32.904Z,6.00
2018-05-27T07:14:00.803Z,5.53
2018-05-27T07:16:28.764Z,6.80
2018-05-27T07:18:56.974Z,6.30
2018-05-27T07:21:24.985Z,6.13
2018-05-27T07:23:52.877Z,6.00
2018-05-27T07:26:21.524Z,6.07
2018-05-27T07:28:49.427Z,6.20
2018-05-27T07:31:18.095Z,6.17
2018-05-27T07:33:45.989Z,6.13
2018-05-27T07:36:13.880Z,6.50
2018-05-27T07:38:41.858Z,5.40
2018-05-27T07:41:09.750Z,4.90
2018-05-27T07:43:37.640Z,4.70
2018-05-27T07:46:05.533Z,4.40
2018-05-27T07:48:33.427Z,4.87
2018-05-27T07:51:01.333Z,4.93
2018-05-27T07:53:29.293Z,3.97
2018-05-27T07:55:57.199Z,7.10
2018-05-27T07:58:25.897Z,4.53
2018-05-27T08:00:53.797Z,4.30
2018-05-27T08:03:21.694Z,4.10
2018-05-27T08:05:49.719Z,3.80
2018-05-27T08:08:17.609Z,4.40
2018-05-27T08:10:45.504Z,4.37
2018-05-27T08:13:13.400Z,3.70
2018-05-27T08:15:45.356Z,4.37
2018-05-27T08:18:13.426Z,3.63
2018-05-27T08:20:41.337Z,7.50
2018-05-27T08:23:09.235Z,4.83
2018-05-27T08:25:37.136Z,4.43
2018-05-27T08:28:05.050Z,4.10
2018-05-27T08:30:32.937Z,4.27
2018-05-27T08:33:00.835Z,4.13
2018-05-27T08:35:28.758Z,3.60
2018-05-27T08:37:57.714Z,3.17
2018-05-27T08:40:26.393Z,3.30
2018-05-27T08:42:55.055Z,3.37
2018-05-27T08:45:23.038Z,3.43
2018-05-27T08:47:50.936Z,3.10
2018-05-27T08:50:18.831Z,3.13
2018-05-27T08:52:46.741Z,3.00
2018-05-27T08:55:14.644Z,3.23
2018-05-27T08:57:42.560Z,3.17
2018-05-27T09:00:10.465Z,3.33
2018-05-27T09:02:39.128Z,2.80
2018-05-27T09:05:07.022Z,3.13
2018-05-27T09:07:35.693Z,2.33
2018-05-27T09:10:03.734Z,2.93
2018-05-27T09:12:31.687Z,2.90
2018-05-27T09:14:59.577Z,2.83
2018-05-27T09:17:27.477Z,2.50
2018-05-27T09:19:55.429Z,3.10
2018-05-27T09:22:23.317Z,3.00
2018-05-27T09:24:51.239Z,2.73
2018-05-27T09:27:19.131Z,3.17
2018-05-27T09:29:47.034Z,2.40
2018-05-27T09:32:15.681Z,2.90
2018-05-27T09:34:43.565Z,3.10
2018-05-27T09:37:11.473Z,3.00
2018-05-27T09:39:39.383Z,2.90
2018-05-27T09:42:07.269Z,2.80
2018-05-27T09:44:35.162Z,2.00
2018-05-27T09:47:03.812Z,2.47
2018-05-27T09:49:31.700Z,2.20
2018-05-27T09:51:59.605Z,2.13
2018-05-27T09:54:27.493Z,2.90
2018-05-27T09:56:55.372Z,2.80
2018-05-27T09:59:23.247Z,2.87
2018-05-27T10:01:51.203Z,2.83
2018-05-27T10:04:19.081Z,4.00
2018-05-27T10:06:47.046Z,3.07
2018-05-27T10:09:14.957Z,3.50
2018-05-27T10:11:43.634Z,3.27
2018-05-27T10:14:11.530Z,3.30
2018-05-27T10:16:40.215Z,3.23
2018-05-27T10:19:09.117Z,3.40
2018-05-27T10:21:37.010Z,4.10
2018-05-27T10:24:04.925Z,3.40
2018-05-27T10:26:33.693Z,3.67
2018-05-27T10:29:08.735Z,3.70
2018-05-27T10:31:37.622Z,3.37
2018-05-27T10:34:09.047Z,3.67
2018-05-27T10:36:37.028Z,3.87
2018-05-27T10:39:06.908Z,3.70
2018-05-27T10:41:34.823Z,3.80
2018-05-27T10:44:02.748Z,3.33
2018-05-27T10:46:30.624Z,4.47
2018-05-27T10:48:58.546Z,4.30
2018-05-27T10:51:26.463Z,3.87
2018-05-27T10:53:54.357Z,4.30
2018-05-27T10:56:27.548Z,4.27
2018-05-27T10:58:55.486Z,3.30
2018-05-27T11:01:23.427Z,4.20
2018-05-27T11:03:51.330Z,3.90
2018-05-27T11:06:19.237Z,3.60
2018-05-27T11:08:47.142Z,4.00
2018-05-27T11:11:15.850Z,3.70
2018-05-27T11:13:43.756Z,4.20
2018-05-27T11:16:11.729Z,3.70
2018-05-27T11:18:39.618Z,4.03
2018-05-27T11:21:07.564Z,3.63
2018-05-27T11:23:35.445Z,4.20
2018-05-27T11:26:03.344Z,3.93
2018-05-27T11:28:32.001Z,4.90
2018-05-27T11:30:59.904Z,5.93
2018-05-27T11:33:28.585Z,5.13
2018-05-27T11:35:56.502Z,5.73
2018-05-27T11:38:24.397Z,5.90
2018-05-27T11:40:52.543Z,6.30
2018-05-27T11:43:20.473Z,6.30
2018-05-27T11:45:49.163Z,6.33
2018-05-27T11:48:17.579Z,7.03
2018-05-27T11:50:47.449Z,7.53
2018-05-27T11:53:16.111Z,6.43
2018-05-27T11:55:44.062Z,7.10
2018-05-27T11:58:11.980Z,6.37
2018-05-27T12:00:40.666Z,6.70
2018-05-27T12:03:09.318Z,5.63
2018-05-27T12:05:37.214Z,5.77
2018-05-27T12:08:05.117Z,8.57
2018-05-27T12:10:33.948Z,6.53
2018-05-27T12:13:01.893Z,6.50
2018-05-27T12:15:29.809Z,5.67
2018-05-27T12:17:57.714Z,5.63
2018-05-27T12:20:25.642Z,5.80
2018-05-27T12:22:54.552Z,5.43
2018-05-27T12:25:23.695Z,6.80
2018-05-27T12:27:55.282Z,6.40
2018-05-27T12:30:30.203Z,5.13
2018-05-27T12:32:58.226Z,4.97
2018-05-27T12:35:26.132Z,5.20
2018-05-27T12:37:54.126Z,5.37
2018-05-27T12:40:22.083Z,5.40
2018-05-27T12:42:50.062Z,5.53
2018-05-27T12:45:17.972Z,5.50
2018-05-27T12:47:46.632Z,5.63
2018-05-27T12:50:14.655Z,6.00
2018-05-27T12:52:45.501Z,5.40
2018-05-27T12:55:13.499Z,6.07
2018-05-27T12:57:41.446Z,5.53
2018-05-27T13:00:09.384Z,6.33
2018-05-27T13:02:37.285Z,6.33
2018-05-27T13:05:05.258Z,5.83
2018-05-27T13:07:33.153Z,6.30
2018-05-27T13:10:01.061Z,5.50
2018-05-27T13:12:28.993Z,5.83
2018-05-27T13:14:56.901Z,6.30
2018-05-27T13:17:24.842Z,6.03
2018-05-27T13:19:53.697Z,6.03
2018-05-27T13:22:21.577Z,5.63
2018-05-27T13:24:49.470Z,6.07
2018-05-27T13:27:18.137Z,5.80
2018-05-27T13:29:46.157Z,5.83
2018-05-27T13:32:14.050Z,5.77
2018-05-27T13:34:42.055Z,5.07
2018-05-27T13:37:09.949Z,5.20
2018-05-27T13:39:38.617Z,6.30
2018-05-27T13:42:06.516Z,6.10
2018-05-27T13:44:34.479Z,5.27
2018-05-27T13:47:03.034Z,6.30
2018-05-27T13:49:30.929Z,5.93
2018-05-27T13:51:58.903Z,5.90
2018-05-27T13:54:27.575Z,5.13
2018-05-27T13:56:56.291Z,5.67
2018-05-27T13:59:24.209Z,6.20
2018-05-27T14:01:52.178Z,6.07
2018-05-27T14:04:20.567Z,6.37
2018-05-27T14:06:48.470Z,6.50
2018-05-27T14:09:16.366Z,5.63
2018-05-27T14:11:44.267Z,6.73
2018-05-27T14:14:12.172Z,5.47
2018-05-27T14:16:42.606Z,6.57
2018-05-27T14:19:10.496Z,5.80
2018-05-27T14:21:38.401Z,6.33
2018-05-27T14:24:06.352Z,6.23
2018-05-27T14:26:34.249Z,7.17
2018-05-27T14:29:02.142Z,6.13
2018-05-27T14:31:30.069Z,6.03
2018-05-27T14:33:57.978Z,6.53
2018-05-27T14:36:26.364Z,6.13
2018-05-27T14:38:54.341Z,5.93
2018-05-27T14:41:22.269Z,5.60
2018-05-27T14:43:50.168Z,5.57
2018-05-27T14:46:18.095Z,5.40
2018-05-27T14:48:46.043Z,4.93
2018-05-27T14:51:13.940Z,5.23
2018-05-27T14:53:41.841Z,5.67
2018-05-27T14:56:10.596Z,4.63
2018-05-27T14:58:38.514Z,5.53
2018-05-27T15:01:06.427Z,4.40
2018-05-27T15:03:34.334Z,4.50
2018-05-27T15:06:03.002Z,5.23
2018-05-27T15:08:30.989Z,4.33
2018-05-27T15:10:59.671Z,4.63
2018-05-27T15:13:28.771Z,4.07
2018-05-27T15:15:59.893Z,4.47
2018-05-27T15:18:32.227Z,3.87
2018-05-27T15:21:01.964Z,4.60
2018-05-27T15:26:17.179Z,4.80
2018-05-27T15:28:45.108Z,4.50
2018-05-27T15:31:13.266Z,3.97
2018-05-27T15:33:42.030Z,4.33
2018-05-27T15:36:10.722Z,3.83
2018-05-27T15:38:38.686Z,4.63
2018-05-27T15:41:06.590Z,5.33
2018-05-27T15:43:34.499Z,5.20
2018-05-27T15:46:02.397Z,5.00
2018-05-27T15:48:31.063Z,5.47
2018-05-27T15:50:59.034Z,6.87
2018-05-27T15:53:27.745Z,8.70
2018-05-27T15:55:56.406Z,11.97
2018-05-27T15:58:24.297Z,9.30
2018-05-27T16:00:52.245Z,7.00
2018-05-27T16:03:20.161Z,6.07
2018-05-27T16:05:48.065Z,7.90
2018-05-27T16:08:17.167Z,6.10
2018-05-27T16:10:45.112Z,36.77
2018-05-27T16:13:13.029Z,27.57
2018-05-27T16:15:41.814Z,7.13
2018-05-27T16:18:10.486Z,11.07
2018-05-27T16:35:03.144Z,9.33
2018-05-27T16:40:29.849Z,6.87
2018-05-27T16:42:57.719Z,6.47
2018-05-27T16:45:25.604Z,7.83
2018-05-27T16:47:54.995Z,7.30
2018-05-27T16:50:23.879Z,7.00
2018-05-27T16:52:52.660Z,9.40
2018-05-27T16:55:21.393Z,8.93
2018-05-27T16:57:49.301Z,11.70
2018-05-27T17:00:18.240Z,11.57
2018-05-27T17:02:47.377Z,14.20
2018-05-27T17:05:15.862Z,12.77
2018-05-27T17:07:44.700Z,11.37
2018-05-27T17:14:25.640Z,11.83
2018-05-27T17:16:53.546Z,12.80
2018-05-27T17:19:21.890Z,11.90
2018-05-27T17:21:49.797Z,12.50
2018-05-27T17:24:17.694Z,9.67
2018-05-27T18:44:24.051Z,6.00
2018-05-27T18:46:51.926Z,6.13
2018-05-27T18:49:20.711Z,5.70
2018-05-27T18:51:48.611Z,6.00
2018-05-27T18:54:16.513Z,6.40
2018-05-27T18:56:44.414Z,5.67
2018-05-27T18:59:12.357Z,6.10
2018-05-27T19:01:41.007Z,6.03
2018-05-27T19:04:09.710Z,6.67
2018-05-27T19:06:37.609Z,6.80
2018-05-27T19:09:06.378Z,6.90
2018-05-27T19:11:34.381Z,7.17
2018-05-27T19:14:05.160Z,7.10
2018-05-27T19:16:36.251Z,8.70
2018-05-27T19:19:04.358Z,7.50
2018-05-27T19:21:34.864Z,6.87
2018-05-27T19:24:13.455Z,6.87
2018-05-27T19:26:42.378Z,6.80
2018-05-27T19:29:11.314Z,6.47
2018-05-27T19:31:41.633Z,6.20
2018-05-27T19:34:10.729Z,6.37
2018-05-27T19:36:39.743Z,6.70
2018-05-27T19:39:07.720Z,6.37
2018-05-27T19:41:35.630Z,6.07
2018-05-27T19:44:03.621Z,7.90
2018-05-27T19:46:33.095Z,7.83
2018-05-27T19:49:01.012Z,6.73
2018-05-27T19:51:28.906Z,6.30
2018-05-27T19:53:56.813Z,5.30
2018-05-27T19:56:24.716Z,5.13
2018-05-27T19:58:53.374Z,5.00
2018-05-27T20:01:22.351Z,5.40
2018-05-27T20:03:51.529Z,6.23
2018-05-27T20:06:19.582Z,6.13
2018-05-27T20:08:47.458Z,5.30
2018-05-27T20:11:18.741Z,6.57
2018-05-27T20:13:46.633Z,6.40
2018-05-27T20:16:14.556Z,6.67
2018-05-27T20:18:42.449Z,5.90
2018-05-27T20:21:10.356Z,6.37
2018-05-27T20:23:39.118Z,7.00
2018-05-27T20:26:07.352Z,6.03
2018-05-27T20:28:35.270Z,6.93
2018-05-27T20:31:03.166Z,5.57
2018-05-27T20:33:31.689Z,6.20
2018-05-27T20:35:59.697Z,7.07
2018-05-27T20:38:28.721Z,6.37
2018-05-27T20:40:56.654Z,5.87
2018-05-27T20:43:24.614Z,6.43
2018-05-27T20:45:52.591Z,6.40
2018-05-27T20:48:20.483Z,7.77
2018-05-27T20:50:49.135Z,8.00
2018-05-27T20:53:17.029Z,6.53
2018-05-27T20:55:45.705Z,6.80
2018-05-27T20:58:13.602Z,6.30
2018-05-27T21:00:42.889Z,7.33
2018-05-27T21:03:11.557Z,8.97
2018-05-27T21:05:39.450Z,8.80
2018-05-27T21:08:08.111Z,7.27
2018-05-27T21:10:36.000Z,7.93
2018-05-27T21:13:08.223Z,6.30
2018-05-27T21:15:36.348Z,5.33
2018-05-27T21:18:07.821Z,6.70
2018-05-27T21:20:36.109Z,8.03
2018-05-27T21:23:04.014Z,6.20
2018-05-27T21:25:31.913Z,6.40
2018-05-27T21:28:01.813Z,7.17
2018-05-27T21:30:29.701Z,7.07
2018-05-27T21:32:57.599Z,7.77
2018-05-27T21:35:25.517Z,7.50
2018-05-27T21:37:53.415Z,6.70
2018-05-27T21:40:21.309Z,6.07
2018-05-27T21:42:49.191Z,4.70
2018-05-27T21:45:17.077Z,5.60
2018-05-27T21:47:44.979Z,8.20
2018-05-27T21:50:12.889Z,7.53
2018-05-27T21:52:40.774Z,7.30
2018-05-27T21:55:08.662Z,5.90
2018-05-27T21:57:36.544Z,7.40
2018-05-27T22:00:05.282Z,7.23
2018-05-27T22:02:33.181Z,5.90
2018-05-27T22:05:01.072Z,5.53
2018-05-27T22:07:29.734Z,4.80
2018-05-27T22:09:57.629Z,5.60
2018-05-27T22:12:26.283Z,5.67
2018-05-27T22:14:54.185Z,7.23
2018-05-27T22:17:22.854Z,9.40
2018-05-27T22:19:50.736Z,7.57
2018-05-27T22:22:19.392Z,7.47
2018-05-27T22:24:47.280Z,9.07
2018-05-27T22:27:15.231Z,8.00
2018-05-27T22:29:43.171Z,8.00
2018-05-27T22:32:11.084Z,10.60
2018-05-27T22:34:38.981Z,10.47
2018-05-27T22:37:06.897Z,8.63
2018-05-27T22:39:34.806Z,6.37
2018-05-27T22:42:03.510Z,7.30
2018-05-27T22:44:31.419Z,6.50
2018-05-27T22:46:59.332Z,5.70
2018-05-27T22:49:28.057Z,5.73
2018-05-27T22:51:55.961Z,6.30
2018-05-27T22:54:23.877Z,6.10
2018-05-27T22:57:01.440Z,5.50
2018-05-27T22:59:29.578Z,5.93
2018-05-27T23:01:57.510Z,6.77
2018-05-27T23:04:25.563Z,6.83
2018-05-27T23:06:54.267Z,6.83
2018-05-27T23:09:22.929Z,9.87
2018-05-27T23:11:50.845Z,9.60
2018-05-27T23:14:18.757Z,8.33
2018-05-27T23:16:46.660Z,8.10
2018-05-27T23:19:14.636Z,8.30
2018-05-27T23:21:42.545Z,9.37
2018-05-27T23:24:10.448Z,8.13
2018-05-27T23:26:38.337Z,7.73
2018-05-27T23:29:06.294Z,9.30
2018-05-27T23:31:34.945Z,8.47
2018-05-27T23:34:02.856Z,6.30
2018-05-27T23:36:31.499Z,6.73
2018-05-27T23:38:59.381Z,7.87
2018-05-27T23:41:27.292Z,8.33
2018-05-27T23:43:55.194Z,7.00
2018-05-27T23:46:23.107Z,7.73
2018-05-27T23:48:51.759Z,7.60
2018-05-27T23:51:19.662Z,8.60
2018-05-27T23:53:47.566Z,7.43
2018-05-27T23:56:15.508Z,6.97
2018-05-27T23:58:43.401Z,6.50
